Time;durP1;ratioP1;P1;durP2;ratioP2;P2;SDS_P1;SDS_P2;PMS_P1;PMS_P2;Temp;Humidity;BMP_temperature;BMP_pressure;BME280_temperature;BME280_humidity;BME280_pressure;Samples;Min_cycle;Max_cycle;Signal;HPM_P1;HPM_P2
2022/12/24 00:01:13;;;;;;;10.50;2.83;;;12.60;84.00;;;;;;5037180;28;20494;-68
2022/12/24 00:03:40;;;;;;;14.23;3.10;;;12.60;84.10;;;;;;5038238;28;20466;-66
2022/12/24 00:06:15;;;;;;;11.43;3.03;;;12.60;83.90;;;;;;5038808;28;20569;-68
2022/12/24 00:08:45;;;;;;;7.03;2.23;;;12.50;84.00;;;;;;5039031;28;20863;-67
2022/12/24 00:11:13;;;;;;;10.67;2.80;;;12.50;83.50;;;;;;5040039;28;20485;-68
2022/12/24 00:13:41;;;;;;;11.47;2.10;;;12.50;83.70;;;;;;5056560;28;20459;-67
2022/12/24 00:16:09;;;;;;;9.10;2.43;;;12.50;83.60;;;;;;5041731;28;20908;-66
2022/12/24 00:18:37;;;;;;;9.03;3.57;;;12.40;83.60;;;;;;5039831;28;20513;-66
2022/12/24 00:21:13;;;;;;;8.60;2.20;;;12.40;83.70;;;;;;5036562;28;20483;-67
2022/12/24 00:23:41;;;;;;;13.83;2.97;;;12.40;83.80;;;;;;5040841;28;20937;-67
2022/12/24 00:26:10;;;;;;;13.67;3.33;;;12.40;83.60;;;;;;5039273;28;20459;-69
2022/12/24 00:28:38;;;;;;;11.60;3.07;;;12.40;83.70;;;;;;5039644;28;20457;-67
2022/12/24 00:31:14;;;;;;;7.60;1.90;;;12.40;83.60;;;;;;5039506;28;20489;-69
2022/12/24 00:33:42;;;;;;;14.00;2.77;;;12.40;83.40;;;;;;5041136;28;20438;-68
2022/12/24 00:36:10;;;;;;;13.43;2.93;;;12.40;83.20;;;;;;5036471;28;20486;-67
2022/12/24 00:38:39;;;;;;;17.40;3.00;;;12.40;83.20;;;;;;5038934;28;20454;-67
2022/12/24 00:41:23;;;;;;;12.80;2.70;;;12.40;82.70;;;;;;5038365;28;20474;-69
2022/12/24 00:43:53;;;;;;;11.53;2.30;;;12.40;82.60;;;;;;5040861;28;20535;-68
2022/12/24 00:46:21;;;;;;;14.50;2.80;;;12.40;82.40;;;;;;5039999;28;20463;-68
2022/12/24 00:48:49;;;;;;;11.03;2.43;;;12.30;82.60;;;;;;5040104;28;20505;-66
2022/12/24 00:51:19;;;;;;;9.43;2.13;;;12.30;82.60;;;;;;5038322;28;20489;-68
2022/12/24 00:53:47;;;;;;;14.00;3.20;;;12.30;82.50;;;;;;5041228;28;20462;-69
2022/12/24 00:56:16;;;;;;;14.33;2.50;;;12.30;82.40;;;;;;5039992;28;20862;-69
2022/12/24 00:58:44;;;;;;;11.93;2.53;;;12.30;82.30;;;;;;5040885;28;20501;-67
2022/12/24 01:01:13;;;;;;;13.73;2.90;;;12.30;82.10;;;;;;5038532;28;20509;-66
2022/12/24 01:03:41;;;;;;;8.23;2.53;;;12.20;82.00;;;;;;5057115;28;20455;-66
2022/12/24 01:06:10;;;;;;;14.73;2.63;;;12.20;82.10;;;;;;5040038;28;20459;-66
2022/12/24 01:08:38;;;;;;;12.17;2.93;;;12.20;81.80;;;;;;5042737;28;20566;-67
2022/12/24 01:11:08;;;;;;;12.80;2.50;;;12.20;81.80;;;;;;5041955;28;20479;-66
2022/12/24 01:13:38;;;;;;;7.40;1.93;;;12.20;81.70;;;;;;5041608;28;20460;-70
2022/12/24 01:16:14;;;;;;;8.27;2.60;;;12.20;81.70;;;;;;5040315;28;20824;-70
2022/12/24 01:18:43;;;;;;;13.90;3.03;;;12.20;81.80;;;;;;5039334;28;20550;-69
2022/12/24 01:21:11;;;;;;;10.37;2.30;;;12.20;81.80;;;;;;5039209;28;20484;-69
2022/12/24 01:23:38;;;;;;;9.70;1.90;;;12.20;81.60;;;;;;5041616;28;20960;-68
2022/12/24 01:26:06;;;;;;;9.80;2.10;;;12.20;81.40;;;;;;5041021;28;20478;-68
2022/12/24 01:28:34;;;;;;;9.93;2.07;;;12.10;81.60;;;;;;5037742;28;20456;-67
2022/12/24 01:31:11;;;;;;;10.67;2.30;;;12.10;81.70;;;;;;5040311;28;20493;-68
2022/12/24 01:33:39;;;;;;;9.07;2.60;;;12.10;81.70;;;;;;5039498;28;20581;-69
2022/12/24 01:36:07;;;;;;;11.43;2.53;;;12.10;81.50;;;;;;5039820;28;20983;-70
2022/12/24 01:38:35;;;;;;;11.10;2.93;;;12.10;81.40;;;;;;5043622;28;20455;-68
2022/12/24 01:43:48;;;;;;;18.93;2.90;;;12.10;81.30;;;;;;5040988;28;21031;-68
2022/12/24 01:46:21;;;;;;;12.33;2.63;;;12.10;81.40;;;;;;5040521;28;21024;-68
2022/12/24 01:48:52;;;;;;;12.30;2.60;;;12.10;81.20;;;;;;5038534;28;20466;-69
2022/12/24 01:51:26;;;;;;;18.37;3.10;;;12.00;80.90;;;;;;5055841;28;20928;-68
2022/12/24 01:53:58;;;;;;;12.90;2.30;;;12.00;80.90;;;;;;5045078;28;20467;-68
2022/12/24 01:56:28;;;;;;;11.30;2.70;;;12.00;81.20;;;;;;5042963;28;20998;-69
2022/12/24 01:59:00;;;;;;;11.20;2.73;;;12.00;80.90;;;;;;5042710;28;21089;-69
2022/12/24 02:01:29;;;;;;;10.97;2.70;;;12.00;81.10;;;;;;5045604;28;21182;-69
2022/12/24 02:03:58;;;;;;;12.97;2.53;;;12.00;80.90;;;;;;5044770;28;20548;-69
2022/12/24 02:06:26;;;;;;;12.60;2.50;;;12.00;80.80;;;;;;5043414;28;20465;-69
2022/12/24 02:08:55;;;;;;;15.90;2.63;;;12.00;80.70;;;;;;5042062;28;20455;-66
2022/12/24 02:11:23;;;;;;;11.50;2.40;;;12.00;80.70;;;;;;5042087;28;20487;-67
2022/12/24 02:13:56;;;;;;;16.70;2.40;;;12.00;80.80;;;;;;5043954;28;20652;-65
2022/12/24 02:16:37;;;;;;;23.03;3.53;;;12.00;80.80;;;;;;5043235;28;20446;-69
2022/12/24 02:19:23;;;;;;;9.43;2.43;;;12.00;80.70;;;;;;5043539;28;20569;-67
2022/12/24 02:21:57;;;;;;;11.13;2.70;;;12.00;80.80;;;;;;5041535;28;20478;-69
2022/12/24 02:24:55;;;;;;;16.77;2.90;;;12.00;80.80;;;;;;5044875;28;20454;-68
2022/12/24 02:27:44;;;;;;;13.40;3.10;;;12.00;80.60;;;;;;5036049;28;20490;-65
2022/12/24 02:30:18;;;;;;;15.53;3.00;;;12.00;80.70;;;;;;5042656;28;21148;-69
2022/12/24 02:33:08;;;;;;;15.87;2.93;;;12.00;80.70;;;;;;5043646;28;21174;-65
2022/12/24 02:35:45;;;;;;;16.17;3.23;;;12.00;80.70;;;;;;5042542;28;20463;-69
2022/12/24 02:38:17;;;;;;;12.20;2.40;;;12.00;80.70;;;;;;5041828;28;20498;-68
2022/12/24 02:40:51;;;;;;;9.40;2.30;;;12.00;80.70;;;;;;5043770;28;20474;-67
2022/12/24 02:43:23;;;;;;;12.63;2.57;;;12.00;80.60;;;;;;5041949;28;20471;-68
2022/12/24 02:45:57;;;;;;;10.90;2.60;;;12.00;80.70;;;;;;5043489;28;20871;-67
2022/12/24 02:48:28;;;;;;;10.63;2.67;;;12.10;80.60;;;;;;5042772;28;21270;-68
2022/12/24 02:51:01;;;;;;;16.50;2.60;;;12.00;80.60;;;;;;5041072;28;20493;-66
2022/12/24 02:53:29;;;;;;;15.90;3.23;;;12.10;80.60;;;;;;5045335;28;20469;-68
2022/12/24 02:56:25;;;;;;;12.93;2.97;;;12.00;80.60;;;;;;5045625;28;21194;-67
2022/12/24 02:59:22;;;;;;;12.10;2.60;;;12.10;80.60;;;;;;5041988;28;20490;-66
2022/12/24 03:01:58;;;;;;;11.63;3.00;;;12.10;80.40;;;;;;5056086;28;20479;-68
2022/12/24 03:04:40;;;;;;;15.33;3.07;;;12.00;80.40;;;;;;5042071;28;20460;-67
2022/12/24 03:07:20;;;;;;;10.50;2.03;;;12.00;80.50;;;;;;5057254;28;20543;-66
2022/12/24 03:10:00;;;;;;;9.07;2.27;;;12.00;80.50;;;;;;5042397;28;20462;-65
2022/12/24 03:12:32;;;;;;;14.60;2.77;;;11.90;80.40;;;;;;5042664;28;20463;-67
2022/12/24 03:15:02;;;;;;;17.87;3.30;;;12.00;80.50;;;;;;5042064;28;21030;-68
2022/12/24 03:17:34;;;;;;;11.43;2.43;;;12.00;80.30;;;;;;5042386;28;20528;-66
2022/12/24 03:20:04;;;;;;;11.57;1.90;;;11.90;80.20;;;;;;5040223;28;20482;-67
2022/12/24 03:22:34;;;;;;;15.10;2.50;;;11.90;80.20;;;;;;5042348;28;20458;-65
2022/12/24 03:25:03;;;;;;;11.40;2.63;;;11.90;80.20;;;;;;5044528;28;20849;-68
2022/12/24 03:27:33;;;;;;;11.70;2.40;;;11.90;80.30;;;;;;5043475;28;20516;-67
2022/12/24 03:30:03;;;;;;;17.07;2.83;;;11.90;80.40;;;;;;5042390;28;20830;-69
2022/12/24 03:32:33;;;;;;;11.87;2.20;;;11.90;80.40;;;;;;5041861;28;21252;-67
2022/12/24 03:35:01;;;;;;;14.17;3.20;;;11.90;80.50;;;;;;5039387;28;20973;-68
2022/12/24 03:37:29;;;;;;;11.93;2.80;;;11.90;80.50;;;;;;5041183;28;20540;-68
2022/12/24 03:39:57;;;;;;;14.90;2.40;;;11.90;80.40;;;;;;5043411;28;20462;-68
2022/12/24 03:42:25;;;;;;;13.30;3.10;;;11.90;80.40;;;;;;5041484;28;20467;-69
2022/12/24 03:44:53;;;;;;;12.00;2.77;;;11.90;80.30;;;;;;5041246;28;20541;-66
2022/12/24 03:47:21;;;;;;;11.80;2.77;;;11.90;80.30;;;;;;5040760;28;20463;-68
2022/12/24 03:49:50;;;;;;;20.33;3.10;;;11.90;80.30;;;;;;5039220;28;20463;-64
2022/12/24 03:52:18;;;;;;;14.27;2.50;;;11.90;80.30;;;;;;5042601;28;20482;-70
2022/12/24 03:54:46;;;;;;;11.70;2.37;;;11.90;80.30;;;;;;5041402;28;20459;-68
2022/12/24 03:57:14;;;;;;;12.00;3.27;;;11.90;80.40;;;;;;5042293;28;20864;-69
2022/12/24 03:59:42;;;;;;;20.10;3.30;;;11.80;80.40;;;;;;5055856;28;20482;-68
2022/12/24 04:02:09;;;;;;;11.23;2.83;;;11.90;80.30;;;;;;5041310;28;20999;-67
2022/12/24 04:04:38;;;;;;;12.67;2.90;;;11.80;80.20;;;;;;5040768;28;21017;-67
2022/12/24 04:07:07;;;;;;;15.87;2.53;;;11.90;80.20;;;;;;5041350;28;20455;-67
2022/12/24 04:09:35;;;;;;;9.30;2.53;;;11.80;80.20;;;;;;5039776;28;20463;-68
2022/12/24 04:12:03;;;;;;;14.20;3.10;;;11.80;80.20;;;;;;5041461;28;20490;-66
2022/12/24 04:14:31;;;;;;;12.53;3.13;;;11.80;80.40;;;;;;5041995;28;20451;-68
2022/12/24 04:16:59;;;;;;;14.67;2.60;;;11.80;80.40;;;;;;5040155;28;20473;-67
2022/12/24 04:19:27;;;;;;;12.73;2.83;;;11.90;80.30;;;;;;5039891;28;20502;-67
2022/12/24 04:21:55;;;;;;;11.33;2.30;;;11.90;80.30;;;;;;5040140;28;20487;-68
2022/12/24 04:24:24;;;;;;;21.83;2.90;;;11.80;80.30;;;;;;5041770;28;20510;-68
2022/12/24 04:26:52;;;;;;;15.80;2.50;;;11.80;80.40;;;;;;5040327;28;20474;-67
2022/12/24 04:29:20;;;;;;;13.30;2.70;;;11.90;80.40;;;;;;5055602;28;20459;-68
2022/12/24 04:31:48;;;;;;;13.80;2.47;;;11.80;80.40;;;;;;5037510;28;20491;-67
2022/12/24 04:34:16;;;;;;;19.77;4.23;;;11.90;80.50;;;;;;5040014;28;20458;-65
2022/12/24 04:36:44;;;;;;;11.33;2.93;;;11.90;80.30;;;;;;5040140;28;20459;-68
2022/12/24 04:39:12;;;;;;;15.27;2.70;;;11.90;80.30;;;;;;5043837;28;21187;-68
2022/12/24 04:41:41;;;;;;;8.83;2.30;;;11.90;80.30;;;;;;5040345;28;20481;-66
2022/12/24 04:44:09;;;;;;;21.90;3.40;;;11.90;80.40;;;;;;5039455;28;20477;-67
2022/12/24 04:46:37;;;;;;;16.80;2.63;;;11.90;80.50;;;;;;5037982;28;21328;-68
2022/12/24 04:49:05;;;;;;;11.07;1.90;;;11.90;80.40;;;;;;5040135;28;20501;-68
2022/12/24 04:51:33;;;;;;;10.20;2.40;;;11.90;80.30;;;;;;5038862;28;20566;-68
2022/12/24 04:54:01;;;;;;;8.13;2.40;;;11.90;80.30;;;;;;5039970;28;20513;-67
2022/12/24 04:56:31;;;;;;;14.50;2.60;;;12.00;80.10;;;;;;5042342;28;20455;-67
2022/12/24 04:59:01;;;;;;;12.97;2.63;;;11.90;80.30;;;;;;5039246;28;20479;-67
2022/12/24 05:01:31;;;;;;;12.00;2.30;;;11.90;80.30;;;;;;5035468;28;20905;-67
2022/12/24 05:04:01;;;;;;;11.30;2.30;;;11.90;80.30;;;;;;5039332;28;20458;-67
2022/12/24 05:06:31;;;;;;;7.93;1.93;;;11.90;80.30;;;;;;5038399;28;22216;-69
2022/12/24 05:09:00;;;;;;;14.47;3.27;;;11.90;80.30;;;;;;5039795;28;20592;-69
2022/12/24 05:11:28;;;;;;;11.17;2.57;;;11.90;80.30;;;;;;5039267;28;20497;-67
2022/12/24 05:13:56;;;;;;;11.07;2.60;;;11.90;80.30;;;;;;5040275;28;20459;-68
2022/12/24 05:16:26;;;;;;;17.83;3.20;;;11.80;80.40;;;;;;5037305;28;20459;-68
2022/12/24 05:18:54;;;;;;;17.93;3.13;;;11.90;80.30;;;;;;5058774;28;20484;-64
2022/12/24 05:21:23;;;;;;;13.23;3.20;;;11.90;80.40;;;;;;5035477;28;20522;-67
2022/12/24 05:26:41;;;;;;;17.23;3.20;;;11.90;80.30;;;;;;5041568;28;20467;-65
2022/12/24 05:29:11;;;;;;;15.87;2.47;;;11.90;80.40;;;;;;5042385;28;20453;-70
2022/12/24 05:31:42;;;;;;;10.30;2.77;;;11.90;80.40;;;;;;5039643;28;20501;-68
2022/12/24 05:34:11;;;;;;;13.53;2.93;;;11.90;80.40;;;;;;5046615;28;20542;-68
2022/12/24 05:36:39;;;;;;;10.47;2.20;;;11.90;80.20;;;;;;5044017;28;20463;-68
2022/12/24 05:39:08;;;;;;;16.27;3.00;;;11.90;80.20;;;;;;5043059;28;20479;-68
2022/12/24 05:41:43;;;;;;;14.50;2.97;;;11.90;80.30;;;;;;5044929;28;20470;-68
2022/12/24 05:44:11;;;;;;;13.43;2.90;;;11.90;80.30;;;;;;5045108;28;20918;-66
2022/12/24 05:46:39;;;;;;;10.43;2.50;;;11.90;80.50;;;;;;5044077;28;20462;-67
2022/12/24 05:49:08;;;;;;;10.93;2.90;;;11.90;80.50;;;;;;5045385;28;20764;-66
2022/12/24 05:51:36;;;;;;;9.43;2.57;;;11.90;80.50;;;;;;5044228;28;20483;-68
2022/12/24 05:54:04;;;;;;;10.40;2.50;;;11.90;80.60;;;;;;5045167;28;20466;-68
2022/12/24 05:56:32;;;;;;;14.90;2.90;;;11.90;80.70;;;;;;5044722;28;20462;-67
2022/12/24 05:59:00;;;;;;;13.10;2.83;;;11.90;80.40;;;;;;5060226;28;21378;-69
2022/12/24 06:01:28;;;;;;;14.23;2.90;;;11.90;80.60;;;;;;5041466;28;21196;-69
2022/12/24 06:03:57;;;;;;;15.60;4.40;;;11.90;80.60;;;;;;5044628;28;20517;-69
2022/12/24 06:06:28;;;;;;;11.90;2.70;;;11.90;80.70;;;;;;5042145;28;20463;-67
2022/12/24 06:08:56;;;;;;;10.83;3.93;;;11.90;80.70;;;;;;5047575;28;20459;-68
2022/12/24 06:11:26;;;;;;;15.03;3.40;;;11.90;80.70;;;;;;5044029;28;20942;-64
2022/12/24 06:13:55;;;;;;;18.47;3.20;;;11.80;80.80;;;;;;5042685;28;20458;-67
2022/12/24 06:16:25;;;;;;;14.53;3.30;;;11.80;80.90;;;;;;5043845;28;20542;-68
2022/12/24 06:18:53;;;;;;;20.17;3.97;;;11.80;80.90;;;;;;5043270;28;20490;-69
2022/12/24 06:21:21;;;;;;;17.00;2.70;;;11.80;81.00;;;;;;5042731;28;20497;-68
2022/12/24 06:23:51;;;;;;;17.63;3.77;;;11.80;81.00;;;;;;5045479;28;20459;-68
2022/12/24 06:26:22;;;;;;;9.90;3.40;;;11.80;81.10;;;;;;5043810;28;20970;-68
2022/12/24 06:28:51;;;;;;;13.93;3.23;;;11.80;81.00;;;;;;5043319;28;20471;-66
2022/12/24 06:31:21;;;;;;;21.70;3.40;;;11.80;81.00;;;;;;5042635;28;20517;-67
2022/12/24 06:33:50;;;;;;;9.53;2.70;;;11.80;81.20;;;;;;5040549;28;20812;-68
2022/12/24 06:36:20;;;;;;;19.77;4.77;;;11.80;81.20;;;;;;5042786;28;20886;-69
2022/12/24 06:38:48;;;;;;;11.77;3.10;;;11.80;81.20;;;;;;5042100;28;20463;-67
2022/12/24 06:41:19;;;;;;;11.70;2.67;;;11.80;81.30;;;;;;5041254;28;20486;-69
2022/12/24 06:43:48;;;;;;;15.47;3.73;;;11.80;81.30;;;;;;5044543;28;20462;-67
2022/12/24 06:46:17;;;;;;;16.67;4.07;;;11.80;81.30;;;;;;5044155;28;20846;-68
2022/12/24 06:48:46;;;;;;;19.37;4.70;;;11.80;81.30;;;;;;5042929;28;20478;-67
2022/12/24 06:51:17;;;;;;;17.30;3.73;;;11.70;81.40;;;;;;5043452;28;20479;-68
2022/12/24 06:53:45;;;;;;;13.73;3.20;;;11.80;81.40;;;;;;5061721;28;20459;-67
2022/12/24 06:56:14;;;;;;;12.47;2.93;;;11.70;81.50;;;;;;5042475;28;20479;-67
2022/12/24 06:58:43;;;;;;;15.73;2.77;;;11.80;81.50;;;;;;5041654;28;20548;-68
2022/12/24 07:01:14;;;;;;;17.43;3.33;;;11.80;81.60;;;;;;5040595;28;20548;-66
2022/12/24 07:03:42;;;;;;;15.70;3.60;;;11.80;81.50;;;;;;5039012;28;20555;-68
2022/12/24 07:06:17;;;;;;;12.50;4.27;;;11.80;81.50;;;;;;5041755;28;20463;-68
2022/12/24 07:08:45;;;;;;;17.47;3.87;;;11.80;81.60;;;;;;5042512;28;20467;-69
2022/12/24 07:11:13;;;;;;;11.53;3.07;;;11.80;81.50;;;;;;5043162;28;20752;-67
2022/12/24 07:13:42;;;;;;;23.53;3.80;;;11.80;81.50;;;;;;5040757;28;20463;-68
2022/12/24 07:16:10;;;;;;;17.30;4.20;;;11.80;81.50;;;;;;5039508;28;20467;-66
2022/12/24 07:18:38;;;;;;;14.43;3.80;;;11.80;81.60;;;;;;5061906;28;20974;-67
2022/12/24 07:21:07;;;;;;;23.20;4.17;;;11.80;81.60;;;;;;5042166;28;20910;-66
2022/12/24 07:23:34;;;;;;;14.67;3.47;;;11.70;81.70;;;;;;5042432;28;20471;-67
2022/12/24 07:26:04;;;;;;;14.13;3.80;;;11.80;81.60;;;;;;5042816;28;21174;-66
2022/12/24 07:28:32;;;;;;;21.90;3.70;;;11.80;81.60;;;;;;5039420;28;20467;-67
2022/12/24 07:31:02;;;;;;;20.80;3.60;;;11.80;81.60;;;;;;5039906;28;21015;-66
2022/12/24 07:33:30;;;;;;;20.43;3.90;;;11.80;81.60;;;;;;5040433;28;20467;-67
2022/12/24 07:35:59;;;;;;;14.53;3.70;;;11.80;81.70;;;;;;5040035;28;21073;-67
2022/12/24 07:38:28;;;;;;;23.10;4.07;;;11.70;81.70;;;;;;5042051;28;21187;-66
2022/12/24 07:40:57;;;;;;;15.47;3.43;;;11.70;81.70;;;;;;5041371;28;20574;-66
2022/12/24 07:43:25;;;;;;;16.33;4.63;;;11.70;81.70;;;;;;5039991;28;20466;-68
2022/12/24 07:45:55;;;;;;;21.27;4.30;;;11.80;81.80;;;;;;5038481;28;20462;-67
2022/12/24 07:48:25;;;;;;;17.63;5.70;;;11.80;81.60;;;;;;5038707;28;20463;-66
2022/12/24 07:50:53;;;;;;;14.00;3.97;;;11.80;81.60;;;;;;5039705;28;20473;-66
2022/12/24 07:53:21;;;;;;;20.07;4.10;;;11.70;81.70;;;;;;5038706;28;20463;-67
2022/12/24 07:55:49;;;;;;;17.70;3.20;;;11.70;81.80;;;;;;5037402;28;21458;-66
2022/12/24 07:58:17;;;;;;;15.10;5.07;;;11.70;81.80;;;;;;5037614;28;21019;-68
2022/12/24 08:00:45;;;;;;;15.53;4.33;;;11.70;81.80;;;;;;5040841;28;20487;-68
2022/12/24 08:03:17;;;;;;;20.27;4.80;;;11.70;81.80;;;;;;5042076;28;20474;-67
2022/12/24 08:05:48;;;;;;;13.23;3.60;;;11.70;81.90;;;;;;5042795;28;20469;-66
2022/12/24 08:08:16;;;;;;;18.23;4.00;;;11.70;81.90;;;;;;5040908;28;20473;-66
2022/12/24 08:10:44;;;;;;;16.87;3.90;;;11.70;81.90;;;;;;5040837;28;20483;-66
2022/12/24 08:13:13;;;;;;;17.60;3.60;;;11.70;81.90;;;;;;5040773;28;20461;-65
2022/12/24 08:15:41;;;;;;;23.37;3.50;;;11.70;81.90;;;;;;5040178;28;20486;-67
2022/12/24 08:18:09;;;;;;;19.10;4.43;;;11.70;81.90;;;;;;5041207;28;20451;-66
2022/12/24 08:20:38;;;;;;;20.77;3.83;;;11.70;81.90;;;;;;5042623;28;20526;-65
2022/12/24 08:23:08;;;;;;;23.30;4.17;;;11.70;81.90;;;;;;5042025;28;20485;-64
2022/12/24 08:25:36;;;;;;;17.70;3.53;;;11.70;81.90;;;;;;5042999;28;20455;-68
2022/12/24 08:28:05;;;;;;;19.90;4.17;;;11.70;81.90;;;;;;5037232;28;20495;-68
2022/12/24 08:30:33;;;;;;;17.57;4.40;;;11.70;82.00;;;;;;5040600;28;20483;-67
2022/12/24 08:33:01;;;;;;;21.57;3.67;;;11.70;81.90;;;;;;5042125;28;20891;-65
2022/12/24 08:35:30;;;;;;;13.20;4.30;;;11.70;82.00;;;;;;5042203;28;20475;-66
2022/12/24 08:37:58;;;;;;;19.40;4.10;;;11.70;82.00;;;;;;5043769;28;20459;-68
2022/12/24 08:40:27;;;;;;;15.47;3.70;;;11.70;82.00;;;;;;5042198;28;20490;-68
2022/12/24 08:42:55;;;;;;;27.47;4.63;;;11.70;81.90;;;;;;5041111;28;20467;-67
2022/12/24 08:45:23;;;;;;;18.47;3.90;;;11.80;81.90;;;;;;5039509;28;20466;-67
2022/12/24 08:47:51;;;;;;;17.90;3.93;;;11.80;81.90;;;;;;5041916;28;20451;-66
2022/12/24 08:50:19;;;;;;;15.33;3.30;;;11.80;81.90;;;;;;5042019;28;20487;-67
2022/12/24 08:52:47;;;;;;;15.40;2.90;;;11.80;82.00;;;;;;5041865;28;20520;-67
2022/12/24 08:55:16;;;;;;;20.60;3.73;;;11.80;82.00;;;;;;5042570;28;20454;-66
2022/12/24 08:57:45;;;;;;;19.37;3.50;;;11.70;82.00;;;;;;5039849;28;20479;-67
2022/12/24 09:00:14;;;;;;;15.00;4.50;;;11.70;82.00;;;;;;5039429;28;20491;-68
2022/12/24 09:02:42;;;;;;;14.93;4.80;;;11.70;82.00;;;;;;5039623;28;20459;-66
2022/12/24 09:05:10;;;;;;;17.10;4.00;;;11.70;82.10;;;;;;5041161;28;21040;-67
2022/12/24 09:07:38;;;;;;;27.67;4.30;;;11.70;82.10;;;;;;5042908;28;20455;-67
2022/12/24 09:10:07;;;;;;;14.53;3.13;;;11.80;82.10;;;;;;5042714;28;20471;-67
2022/12/24 09:12:35;;;;;;;16.93;3.50;;;11.80;82.00;;;;;;5041357;28;20501;-67
2022/12/24 09:15:06;;;;;;;21.50;3.90;;;11.80;82.10;;;;;;5041748;28;20570;-69
2022/12/24 09:17:35;;;;;;;14.63;3.53;;;11.80;82.10;;;;;;5040903;28;20952;-66
2022/12/24 09:20:05;;;;;;;16.10;3.60;;;11.80;82.10;;;;;;5042222;28;20447;-68
2022/12/24 09:22:34;;;;;;;17.27;4.10;;;11.80;82.20;;;;;;5062062;28;20562;-68
2022/12/24 09:25:03;;;;;;;20.20;3.93;;;11.80;82.10;;;;;;5044014;28;20459;-68
2022/12/24 09:27:31;;;;;;;14.50;4.10;;;11.80;82.20;;;;;;5037452;28;20983;-67
2022/12/24 09:29:59;;;;;;;23.87;5.50;;;11.90;82.10;;;;;;5039823;28;20490;-67
2022/12/24 09:32:29;;;;;;;22.70;4.70;;;11.90;82.20;;;;;;5040654;28;20458;-68
2022/12/24 09:34:57;;;;;;;23.40;4.50;;;11.90;82.20;;;;;;5042097;28;21057;-67
2022/12/24 09:37:25;;;;;;;14.43;3.60;;;11.90;82.10;;;;;;5041690;28;20455;-69
2022/12/24 09:39:53;;;;;;;14.77;3.60;;;11.90;82.10;;;;;;5044168;28;20470;-66
2022/12/24 09:42:37;;;;;;;15.93;4.10;;;11.90;82.30;;;;;;5038923;28;20475;-65
2022/12/24 09:45:14;;;;;;;20.93;4.30;;;12.00;82.70;;;;;;5038637;28;21111;-65
2022/12/24 09:47:48;;;;;;;15.10;3.73;;;12.10;82.80;;;;;;5040578;28;20882;-66
2022/12/24 09:50:39;;;;;;;20.20;4.30;;;12.30;82.70;;;;;;5039947;28;20479;-66
2022/12/24 09:53:15;;;;;;;20.63;3.40;;;12.40;82.50;;;;;;5039486;28;20979;-66
2022/12/24 09:55:47;;;;;;;25.07;4.37;;;12.50;82.30;;;;;;5041812;28;20458;-67
2022/12/24 09:58:21;;;;;;;18.03;3.53;;;12.50;82.40;;;;;;5039972;28;20472;-66
2022/12/24 10:00:51;;;;;;;17.67;3.40;;;12.60;82.30;;;;;;5039043;28;21195;-65
2022/12/24 10:03:20;;;;;;;20.27;3.90;;;12.70;82.30;;;;;;5039762;28;20513;-67
2022/12/24 10:05:58;;;;;;;20.63;3.80;;;12.80;82.20;;;;;;5039342;28;20690;-65
2022/12/24 10:08:33;;;;;;;20.30;3.70;;;12.80;82.00;;;;;;5037109;28;20470;-66
2022/12/24 10:11:11;;;;;;;18.43;3.93;;;12.90;82.10;;;;;;5041688;28;20494;-65
2022/12/24 10:13:55;;;;;;;17.30;4.20;;;12.90;82.00;;;;;;5042701;28;21030;-67
2022/12/24 10:16:29;;;;;;;15.93;3.47;;;13.00;82.00;;;;;;5043383;28;20467;-64
2022/12/24 10:19:05;;;;;;;12.83;3.80;;;13.00;81.90;;;;;;5043219;28;20488;-67
2022/12/24 10:21:43;;;;;;;17.40;3.83;;;13.10;81.80;;;;;;5043158;28;20487;-66
2022/12/24 10:24:16;;;;;;;18.90;3.33;;;13.10;81.70;;;;;;5041612;28;20463;-65
2022/12/24 10:26:46;;;;;;;24.60;3.93;;;13.20;81.60;;;;;;5043742;28;21355;-67
2022/12/24 10:29:17;;;;;;;15.23;3.37;;;13.20;81.60;;;;;;5042405;28;20471;-63
2022/12/24 10:31:53;;;;;;;21.13;4.27;;;13.30;81.40;;;;;;5041029;28;20479;-65
2022/12/24 10:34:26;;;;;;;22.67;4.07;;;13.30;81.30;;;;;;5046149;28;20473;-65
2022/12/24 10:36:54;;;;;;;25.43;4.13;;;13.30;81.00;;;;;;5044979;28;21269;-66
2022/12/24 10:39:25;;;;;;;12.53;4.20;;;13.40;81.10;;;;;;5042214;28;20461;-66
2022/12/24 10:41:56;;;;;;;22.47;4.27;;;13.30;80.80;;;;;;5044097;28;20488;-66
2022/12/24 10:44:27;;;;;;;17.60;3.67;;;13.30;80.70;;;;;;5042194;28;21387;-67
2022/12/24 10:46:56;;;;;;;14.10;3.53;;;13.30;80.40;;;;;;5040161;28;20617;-66
2022/12/24 10:49:32;;;;;;;18.43;4.03;;;13.30;80.60;;;;;;5043650;28;20471;-66
2022/12/24 10:52:05;;;;;;;20.43;4.37;;;13.20;80.60;;;;;;5038284;28;20479;-66
2022/12/24 10:54:38;;;;;;;16.53;4.20;;;13.20;80.30;;;;;;5037643;28;20469;-65
2022/12/24 10:57:22;;;;;;;17.23;3.73;;;13.20;80.50;;;;;;5042487;28;21267;-66
2022/12/24 10:59:53;;;;;;;21.93;4.10;;;13.20;80.50;;;;;;5040542;28;20466;-66
2022/12/24 11:02:30;;;;;;;13.70;3.70;;;13.20;80.00;;;;;;5042144;28;20486;-66
2022/12/24 11:05:01;;;;;;;19.70;4.70;;;13.20;80.10;;;;;;5036504;28;20451;-65
2022/12/24 11:07:31;;;;;;;13.93;3.37;;;13.20;80.30;;;;;;5041887;28;20471;-66
2022/12/24 11:10:01;;;;;;;19.97;3.93;;;13.20;80.30;;;;;;5042383;28;20477;-66
2022/12/24 11:12:32;;;;;;;23.67;4.50;;;13.20;80.10;;;;;;5037820;28;20468;-65
2022/12/24 11:15:06;;;;;;;21.83;4.30;;;13.20;79.90;;;;;;5041046;28;22277;-67
2022/12/24 11:17:34;;;;;;;13.17;2.90;;;13.10;79.90;;;;;;5040447;28;20995;-66
2022/12/24 11:20:07;;;;;;;19.60;4.10;;;13.10;79.90;;;;;;5040486;28;20463;-67
2022/12/24 11:22:35;;;;;;;11.83;4.10;;;13.10;80.00;;;;;;5043905;28;20552;-67
2022/12/24 11:25:06;;;;;;;95.50;9.47;;;13.20;80.00;;;;;;5043984;28;20440;-66
2022/12/24 11:27:40;;;;;;;31.33;5.27;;;13.20;80.00;;;;;;5040824;28;20525;-67
2022/12/24 11:30:30;;;;;;;24.77;4.60;;;13.20;79.90;;;;;;5042235;28;20482;-67
2022/12/24 11:33:20;;;;;;;19.47;4.13;;;13.20;79.70;;;;;;5040657;28;20463;-66
2022/12/24 11:35:55;;;;;;;21.83;3.97;;;13.20;79.90;;;;;;5041796;28;20522;-66
2022/12/24 11:38:24;;;;;;;15.37;3.80;;;13.20;79.80;;;;;;5042650;28;20449;-66
2022/12/24 11:41:06;;;;;;;18.30;3.87;;;13.30;79.90;;;;;;5042863;28;20992;-65
2022/12/24 11:43:45;;;;;;;12.90;3.93;;;13.30;79.80;;;;;;5043861;28;20889;-66
2022/12/24 11:46:34;;;;;;;18.13;3.50;;;13.30;79.60;;;;;;5043075;28;20500;-66
2022/12/24 11:49:23;;;;;;;17.73;4.13;;;13.30;79.40;;;;;;5042099;28;20925;-65
2022/12/24 11:52:24;;;;;;;13.27;3.60;;;13.20;79.30;;;;;;5033737;28;20491;-65
2022/12/24 11:55:12;;;;;;;18.13;4.00;;;13.20;79.10;;;;;;5041529;28;20466;-65
2022/12/24 11:57:51;;;;;;;15.77;4.10;;;13.20;79.20;;;;;;5039402;28;20514;-66
2022/12/24 12:00:19;;;;;;;15.80;3.90;;;13.20;79.40;;;;;;5039910;28;20482;-65
2022/12/24 12:02:51;;;;;;;18.37;4.80;;;13.20;79.40;;;;;;5041201;28;20563;-66
2022/12/24 12:05:22;;;;;;;20.10;4.20;;;13.20;79.40;;;;;;5041769;28;20871;-67
2022/12/24 12:07:54;;;;;;;16.73;4.53;;;13.20;79.20;;;;;;5033038;28;20956;-68
2022/12/24 12:10:25;;;;;;;14.60;3.10;;;13.20;79.20;;;;;;5037242;28;20487;-67
2022/12/24 12:13:00;;;;;;;18.77;4.77;;;13.20;79.20;;;;;;5038478;28;20484;-67
2022/12/24 12:15:33;;;;;;;18.67;3.90;;;13.20;79.00;;;;;;5037253;28;20481;-68
2022/12/24 12:18:11;;;;;;;15.53;3.47;;;13.10;79.10;;;;;;5040056;28;20526;-69
2022/12/24 12:20:43;;;;;;;19.37;4.33;;;13.20;79.20;;;;;;5034848;28;20532;-68
2022/12/24 12:23:17;;;;;;;17.83;4.03;;;13.20;79.20;;;;;;5034949;28;20482;-70
2022/12/24 12:25:54;;;;;;;19.80;4.10;;;13.20;79.20;;;;;;5038110;28;20847;-69
2022/12/24 12:28:28;;;;;;;18.70;4.03;;;13.10;79.10;;;;;;5039822;28;21252;-69
2022/12/24 12:31:02;;;;;;;16.20;3.40;;;13.20;79.30;;;;;;5037561;28;20483;-68
2022/12/24 12:33:37;;;;;;;19.07;3.90;;;13.20;79.30;;;;;;5041157;28;21224;-68
2022/12/24 12:36:09;;;;;;;20.57;4.00;;;13.20;79.30;;;;;;5039977;28;20728;-69
2022/12/24 12:38:39;;;;;;;25.23;4.77;;;13.20;79.10;;;;;;5036677;28;20472;-68
2022/12/24 12:41:33;;;;;;;18.60;4.13;;;13.20;79.10;;;;;;5039664;28;20483;-68
2022/12/24 12:44:22;;;;;;;16.17;4.20;;;13.20;79.00;;;;;;5040666;28;20469;-66
2022/12/24 12:47:08;;;;;;;16.67;3.63;;;13.20;79.10;;;;;;5036488;28;20844;-68
2022/12/24 12:49:45;;;;;;;18.30;4.30;;;13.20;79.20;;;;;;5037726;28;20470;-70
2022/12/24 12:52:23;;;;;;;17.53;4.30;;;13.20;79.30;;;;;;5038176;28;21258;-70
2022/12/24 12:55:07;;;;;;;18.40;3.40;;;13.20;79.20;;;;;;5036218;28;21536;-71
2022/12/24 12:57:38;;;;;;;14.87;3.93;;;13.20;79.10;;;;;;5040103;28;20520;-70
2022/12/24 13:00:09;;;;;;;23.10;4.30;;;13.20;79.10;;;;;;5038967;28;20466;-66
2022/12/24 13:02:52;;;;;;;19.07;3.87;;;13.20;79.10;;;;;;5038850;28;20529;-68
2022/12/24 13:05:45;;;;;;;12.03;4.27;;;13.20;79.10;;;;;;5039087;28;20454;-66